65.7°F
Current conditions from King Hill
Updated every 5 minutes
 
  Saturday July 26, 2014

Station Historical Data
Daily Summary for July 5, 2011 Units:  Both    English   Metric
« Previous Day
Next Day »
Daily Weekly Monthly Yearly Custom
  High: Low: Average:
Temperature: 84.2 °F /  29 °C 59.9 °F /  15.5 °C 72.7 °F /  22.6 °C
Dew Point: 67.2 °F /  19.6 °C 55.1 °F /  12.8 °C 61 °F /  16.1 °C
Humidity: 93% 44% 68%
Wind Speed: 5.0mph /  8km/h - 1.8mph /  2.9km/h
Wind Gust: 10.0mph /  16.1km/h - -
Wind- - WSW
Pressure: 29.85 in /  1010.7 hPa 29.78 in /  1008.4 hPa -
Precipitation: 0.00 in /  0 mm    
Historical Graphs
 
 
Tabular Data for July 5, 2011
Time Temperature Dew Point Pressure Wind Wind Speed Wind Gust Humidity Daily Rainfall
00:05 64.3 °F /  17.9 °C 57.7 °F /  14.3 °C 29.78in /  1008.4hPa West 1.0mph /  1.6km/h 4.0mph /  6.4km/h 79% 0.00in /  0mm
00:10 64.0 °F /  17.8 °C 57.7 °F /  14.3 °C 29.78in /  1008.4hPa West 1.0mph /  1.6km/h 4.0mph /  6.4km/h 80% 0.00in /  0mm
00:15 63.9 °F /  17.7 °C 58.0 °F /  14.4 °C 29.78in /  1008.4hPa Calm   3.0mph /  4.8km/h 81% 0.00in /  0mm
00:20 63.8 °F /  17.7 °C 57.9 °F /  14.4 °C 29.78in /  1008.4hPa Calm     81% 0.00in /  0mm
00:25 63.6 °F /  17.6 °C 57.3 °F /  14.1 °C 29.78in /  1008.4hPa Calm     80% 0.00in /  0mm
00:30 63.7 °F /  17.6 °C 57.8 °F /  14.3 °C 29.79in /  1008.7hPa Calm   1.0mph /  1.6km/h 81% 0.00in /  0mm
00:35 64.0 °F /  17.8 °C 57.7 °F /  14.3 °C 29.78in /  1008.4hPa Calm   1.0mph /  1.6km/h 80% 0.00in /  0mm
00:40 64.4 °F /  18 °C 57.4 °F /  14.1 °C 29.78in /  1008.4hPa WSW 2.0mph /  3.2km/h 7.0mph /  11.3km/h 78% 0.00in /  0mm
00:45 65.8 °F /  18.8 °C 57.7 °F /  14.3 °C 29.78in /  1008.4hPa WSW 1.0mph /  1.6km/h 7.0mph /  11.3km/h 75% 0.00in /  0mm
00:50 66.9 °F /  19.4 °C 58.0 °F /  14.4 °C 29.78in /  1008.4hPa Calm   5.0mph /  8km/h 73% 0.00in /  0mm
00:55 67.6 °F /  19.8 °C 57.9 °F /  14.4 °C 29.78in /  1008.4hPa Calm   5.0mph /  8km/h 71% 0.00in /  0mm
01:00 68.2 °F /  20.1 °C 57.2 °F /  14 °C 29.78in /  1008.4hPa WSW 3.0mph /  4.8km/h 9.0mph /  14.5km/h 68% 0.00in /  0mm
01:05 68.7 °F /  20.4 °C 58.1 °F /  14.5 °C 29.78in /  1008.4hPa Calm   9.0mph /  14.5km/h 69% 0.00in /  0mm
01:10 68.8 °F /  20.4 °C 57.8 °F /  14.3 °C 29.78in /  1008.4hPa West 1.0mph /  1.6km/h 5.0mph /  8km/h 68% 0.00in /  0mm
01:15 68.9 °F /  20.5 °C 57.9 °F /  14.4 °C 29.78in /  1008.4hPa Calm   7.0mph /  11.3km/h 68% 0.00in /  0mm
01:20 69.0 °F /  20.6 °C 57.6 °F /  14.2 °C 29.78in /  1008.4hPa WSW 3.0mph /  4.8km/h 10.0mph /  16.1km/h 67% 0.00in /  0mm
01:25 69.0 °F /  20.6 °C 57.6 °F /  14.2 °C 29.78in /  1008.4hPa WSW 1.0mph /  1.6km/h 10.0mph /  16.1km/h 67% 0.00in /  0mm
01:30 69.0 °F /  20.6 °C 57.2 °F /  14 °C 29.79in /  1008.7hPa West 1.0mph /  1.6km/h 8.0mph /  12.9km/h 66% 0.00in /  0mm
01:35 69.0 °F /  20.6 °C 57.6 °F /  14.2 °C 29.79in /  1008.7hPa Calm   7.0mph /  11.3km/h 67% 0.00in /  0mm
01:40 68.8 °F /  20.4 °C 57.4 °F /  14.1 °C 29.79in /  1008.7hPa Calm   4.0mph /  6.4km/h 67% 0.00in /  0mm
01:45 68.5 °F /  20.3 °C 57.1 °F /  13.9 °C 29.79in /  1008.7hPa Calm   4.0mph /  6.4km/h 67% 0.00in /  0mm
01:50 68.4 °F /  20.2 °C 57.0 °F /  13.9 °C 29.79in /  1008.7hPa West 1.0mph /  1.6km/h 4.0mph /  6.4km/h 67% 0.00in /  0mm
01:55 68.3 °F /  20.2 °C 56.9 °F /  13.8 °C 29.79in /  1008.7hPa Calm   5.0mph /  8km/h 67% 0.00in /  0mm
02:00 68.2 °F /  20.1 °C 57.2 °F /  14 °C 29.79in /  1008.7hPa Calm   5.0mph /  8km/h 68% 0.00in /  0mm
02:05 68.1 °F /  20.1 °C 57.2 °F /  14 °C 29.79in /  1008.7hPa West 1.0mph /  1.6km/h 5.0mph /  8km/h 68% 0.00in /  0mm
02:10 68.1 °F /  20.1 °C 57.2 °F /  14 °C 29.80in /  1009hPa Calm   5.0mph /  8km/h 68% 0.00in /  0mm
02:15 68.1 °F /  20.1 °C 56.7 °F /  13.7 °C 29.79in /  1008.7hPa Calm   4.0mph /  6.4km/h 67% 0.00in /  0mm
02:20 68.2 °F /  20.1 °C 56.8 °F /  13.8 °C 29.79in /  1008.7hPa Calm   5.0mph /  8km/h 67% 0.00in /  0mm
02:25 68.2 °F /  20.1 °C 56.8 °F /  13.8 °C 29.79in /  1008.7hPa West 1.0mph /  1.6km/h 5.0mph /  8km/h 67% 0.00in /  0mm
02:30 68.1 °F /  20.1 °C 57.2 °F /  14 °C 29.79in /  1008.7hPa West 1.0mph /  1.6km/h 5.0mph /  8km/h 68% 0.00in /  0mm
02:35 68.0 °F /  20 °C 57.1 °F /  13.9 °C 29.79in /  1008.7hPa Calm   5.0mph /  8km/h 68% 0.00in /  0mm
02:40 67.5 °F /  19.7 °C 56.6 °F /  13.7 °C 29.79in /  1008.7hPa Calm   3.0mph /  4.8km/h 68% 0.00in /  0mm
02:45 67.1 °F /  19.5 °C 56.2 °F /  13.4 °C 29.79in /  1008.7hPa Calm   2.0mph /  3.2km/h 68% 0.00in /  0mm
02:50 66.5 °F /  19.2 °C 56.8 °F /  13.8 °C 29.80in /  1009hPa Calm   1.0mph /  1.6km/h 71% 0.00in /  0mm
02:55 65.7 °F /  18.7 °C 56.0 °F /  13.3 °C 29.79in /  1008.7hPa West 1.0mph /  1.6km/h 3.0mph /  4.8km/h 71% 0.00in /  0mm
03:00 65.1 °F /  18.4 °C 56.6 °F /  13.7 °C 29.80in /  1009hPa Calm   3.0mph /  4.8km/h 74% 0.00in /  0mm
03:05 64.6 °F /  18.1 °C 56.1 °F /  13.4 °C 29.80in /  1009hPa West 1.0mph /  1.6km/h 4.0mph /  6.4km/h 74% 0.00in /  0mm
03:10 64.1 °F /  17.8 °C 56.4 °F /  13.6 °C 29.79in /  1008.7hPa Calm   4.0mph /  6.4km/h 76% 0.00in /  0mm
03:15 63.5 °F /  17.5 °C 56.2 °F /  13.4 °C 29.80in /  1009hPa West 1.0mph /  1.6km/h 4.0mph /  6.4km/h 77% 0.00in /  0mm
03:20 63.2 °F /  17.3 °C 56.6 °F /  13.7 °C 29.79in /  1008.7hPa Calm   4.0mph /  6.4km/h 79% 0.00in /  0mm
03:25 62.9 °F /  17.2 °C 56.6 °F /  13.7 °C 29.79in /  1008.7hPa WSW 2.0mph /  3.2km/h 4.0mph /  6.4km/h 80% 0.00in /  0mm
03:30 62.7 °F /  17.1 °C 56.4 °F /  13.6 °C 29.80in /  1009hPa Calm   4.0mph /  6.4km/h 80% 0.00in /  0mm
03:35 62.9 °F /  17.2 °C 56.6 °F /  13.7 °C 29.79in /  1008.7hPa Calm   5.0mph /  8km/h 80% 0.00in /  0mm
03:40 63.0 °F /  17.2 °C 56.7 °F /  13.7 °C 29.79in /  1008.7hPa Calm   5.0mph /  8km/h 80% 0.00in /  0mm
03:45 63.0 °F /  17.2 °C 56.4 °F /  13.6 °C 29.79in /  1008.7hPa Calm   1.0mph /  1.6km/h 79% 0.00in /  0mm
03:50 62.8 °F /  17.1 °C 56.2 °F /  13.4 °C 29.79in /  1008.7hPa Calm   1.0mph /  1.6km/h 79% 0.00in /  0mm
03:55 62.5 °F /  16.9 °C 55.9 °F /  13.3 °C 29.79in /  1008.7hPa Calm   1.0mph /  1.6km/h 79% 0.00in /  0mm
04:00 62.3 °F /  16.8 °C 56.1 °F /  13.4 °C 29.80in /  1009hPa Calm   1.0mph /  1.6km/h 80% 0.00in /  0mm
04:05 62.1 °F /  16.7 °C 56.2 °F /  13.4 °C 29.80in /  1009hPa Calm   1.0mph /  1.6km/h 81% 0.00in /  0mm
04:10 61.8 °F /  16.6 °C 55.9 °F /  13.3 °C 29.80in /  1009hPa WSW 1.0mph /  1.6km/h 3.0mph /  4.8km/h 81% 0.00in /  0mm
04:15 61.5 °F /  16.4 °C 55.6 °F /  13.1 °C 29.80in /  1009hPa Calm   3.0mph /  4.8km/h 81% 0.00in /  0mm
04:20 61.5 °F /  16.4 °C 55.6 °F /  13.1 °C 29.80in /  1009hPa Calm   1.0mph /  1.6km/h 81% 0.00in /  0mm
04:25 61.5 °F /  16.4 °C 55.3 °F /  12.9 °C 29.80in /  1009hPa Calm   1.0mph /  1.6km/h 80% 0.00in /  0mm
04:30 61.5 °F /  16.4 °C 55.3 °F /  12.9 °C 29.80in /  1009hPa Calm   2.0mph /  3.2km/h 80% 0.00in /  0mm
04:35 61.3 °F /  16.3 °C 55.1 °F /  12.8 °C 29.80in /  1009hPa Calm   2.0mph /  3.2km/h 80% 0.00in /  0mm
04:40 61.2 °F /  16.2 °C 55.7 °F /  13.2 °C 29.80in /  1009hPa Calm   2.0mph /  3.2km/h 82% 0.00in /  0mm
04:45 61.1 °F /  16.2 °C 55.6 °F /  13.1 °C 29.80in /  1009hPa WSW 1.0mph /  1.6km/h 5.0mph /  8km/h 82% 0.00in /  0mm
04:50 61.0 °F /  16.1 °C 55.8 °F /  13.2 °C 29.81in /  1009.4hPa WSW 2.0mph /  3.2km/h 5.0mph /  8km/h 83% 0.00in /  0mm
04:55 61.1 °F /  16.2 °C 56.2 °F /  13.4 °C 29.81in /  1009.4hPa Calm   5.0mph /  8km/h 84% 0.00in /  0mm
05:00 61.1 °F /  16.2 °C 56.2 °F /  13.4 °C 29.81in /  1009.4hPa Calm   5.0mph /  8km/h 84% 0.00in /  0mm
05:05 60.8 °F /  16 °C 56.3 °F /  13.5 °C 29.81in /  1009.4hPa Calm   1.0mph /  1.6km/h 85% 0.00in /  0mm
05:10 60.7 °F /  15.9 °C 56.5 °F /  13.6 °C 29.81in /  1009.4hPa Calm   5.0mph /  8km/h 86% 0.00in /  0mm
05:15 60.8 °F /  16 °C 56.6 °F /  13.7 °C 29.81in /  1009.4hPa WSW 2.0mph /  3.2km/h 5.0mph /  8km/h 86% 0.00in /  0mm
05:20 61.1 °F /  16.2 °C 56.9 °F /  13.8 °C 29.81in /  1009.4hPa SW 1.0mph /  1.6km/h 5.0mph /  8km/h 86% 0.00in /  0mm
05:25 61.2 °F /  16.2 °C 57.0 °F /  13.9 °C 29.81in /  1009.4hPa Calm   5.0mph /  8km/h 86% 0.00in /  0mm
05:30 61.6 °F /  16.4 °C 57.1 °F /  13.9 °C 29.81in /  1009.4hPa SW 1.0mph /  1.6km/h 4.0mph /  6.4km/h 85% 0.00in /  0mm
05:40 61.7 °F /  16.5 °C 57.1 °F /  13.9 °C 29.81in /  1009.4hPa Calm   1.0mph /  1.6km/h 85% 0.00in /  0mm
05:45 61.5 °F /  16.4 °C 57.0 °F /  13.9 °C 29.81in /  1009.4hPa Calm   1.0mph /  1.6km/h 85% 0.00in /  0mm
05:50 61.3 °F /  16.3 °C 57.1 °F /  13.9 °C 29.82in /  1009.7hPa Calm   1.0mph /  1.6km/h 86% 0.00in /  0mm
05:55 60.9 °F /  16.1 °C 56.7 °F /  13.7 °C 29.82in /  1009.7hPa Calm     86% 0.00in /  0mm
06:00 60.7 °F /  15.9 °C 56.8 °F /  13.8 °C 29.82in /  1009.7hPa Calm     87% 0.00in /  0mm
06:05 60.4 °F /  15.8 °C 56.5 °F /  13.6 °C 29.82in /  1009.7hPa Calm   1.0mph /  1.6km/h 87% 0.00in /  0mm
06:10 60.2 °F /  15.7 °C 56.3 °F /  13.5 °C 29.82in /  1009.7hPa Calm   1.0mph /  1.6km/h 87% 0.00in /  0mm
06:15 60.0 °F /  15.6 °C 56.4 °F /  13.6 °C 29.82in /  1009.7hPa Calm     88% 0.00in /  0mm
06:20 59.9 °F /  15.5 °C 56.7 °F /  13.7 °C 29.82in /  1009.7hPa Calm     89% 0.00in /  0mm
06:30 59.9 °F /  15.5 °C 57.0 °F /  13.9 °C 29.81in /  1009.4hPa Calm   2.0mph /  3.2km/h 90% 0.00in /  0mm
06:35 60.4 °F /  15.8 °C 57.8 °F /  14.3 °C 29.81in /  1009.4hPa Calm   4.0mph /  6.4km/h 91% 0.00in /  0mm
06:40 61.3 °F /  16.3 °C 59.3 °F /  15.2 °C 29.82in /  1009.7hPa Calm   4.0mph /  6.4km/h 93% 0.00in /  0mm
06:45 61.9 °F /  16.6 °C 59.9 °F /  15.5 °C 29.82in /  1009.7hPa Calm   4.0mph /  6.4km/h 93% 0.00in /  0mm
06:50 62.4 °F /  16.9 °C 60.0 °F /  15.6 °C 29.82in /  1009.7hPa Calm   4.0mph /  6.4km/h 92% 0.00in /  0mm
06:55 62.9 °F /  17.2 °C 60.5 °F /  15.8 °C 29.82in /  1009.7hPa Calm   5.0mph /  8km/h 92% 0.00in /  0mm
07:00 63.4 °F /  17.4 °C 60.7 °F /  15.9 °C 29.82in /  1009.7hPa Calm   5.0mph /  8km/h 91% 0.00in /  0mm
07:05 64.0 °F /  17.8 °C 61.3 °F /  16.3 °C 29.83in /  1010hPa Calm   4.0mph /  6.4km/h 91% 0.00in /  0mm
07:10 64.7 °F /  18.2 °C 61.4 °F /  16.3 °C 29.83in /  1010hPa SSW 1.0mph /  1.6km/h 6.0mph /  9.7km/h 89% 0.00in /  0mm
07:15 65.5 °F /  18.6 °C 61.5 °F /  16.4 °C 29.83in /  1010hPa SSW 3.0mph /  4.8km/h 7.0mph /  11.3km/h 87% 0.00in /  0mm
07:20 66.2 °F /  19 °C 61.9 °F /  16.6 °C 29.83in /  1010hPa SW 3.0mph /  4.8km/h 7.0mph /  11.3km/h 86% 0.00in /  0mm
07:25 66.6 °F /  19.2 °C 61.6 °F /  16.4 °C 29.83in /  1010hPa SSW 2.0mph /  3.2km/h 7.0mph /  11.3km/h 84% 0.00in /  0mm
07:30 66.9 °F /  19.4 °C 61.6 °F /  16.4 °C 29.83in /  1010hPa SW 2.0mph /  3.2km/h 7.0mph /  11.3km/h 83% 0.00in /  0mm
07:35 67.0 °F /  19.4 °C 61.7 °F /  16.5 °C 29.83in /  1010hPa SSW 1.0mph /  1.6km/h 7.0mph /  11.3km/h 83% 0.00in /  0mm
07:40 67.0 °F /  19.4 °C 61.7 °F /  16.5 °C 29.83in /  1010hPa Calm   7.0mph /  11.3km/h 83% 0.00in /  0mm
07:45 67.0 °F /  19.4 °C 61.7 °F /  16.5 °C 29.83in /  1010hPa SSW 1.0mph /  1.6km/h 8.0mph /  12.9km/h 83% 0.00in /  0mm
07:50 67.1 °F /  19.5 °C 61.4 °F /  16.3 °C 29.84in /  1010.4hPa SW 3.0mph /  4.8km/h 8.0mph /  12.9km/h 82% 0.00in /  0mm
07:55 67.3 °F /  19.6 °C 62.0 °F /  16.7 °C 29.84in /  1010.4hPa SW 1.0mph /  1.6km/h 8.0mph /  12.9km/h 83% 0.00in /  0mm
08:00 67.6 °F /  19.8 °C 61.9 °F /  16.6 °C 29.84in /  1010.4hPa SSW 2.0mph /  3.2km/h 7.0mph /  11.3km/h 82% 0.00in /  0mm
08:05 67.9 °F /  19.9 °C 62.2 °F /  16.8 °C 29.84in /  1010.4hPa SSW 2.0mph /  3.2km/h 7.0mph /  11.3km/h 82% 0.00in /  0mm
08:10 68.3 °F /  20.2 °C 62.6 °F /  17 °C 29.84in /  1010.4hPa SW 1.0mph /  1.6km/h 7.0mph /  11.3km/h 82% 0.00in /  0mm
08:15 68.7 °F /  20.4 °C 62.3 °F /  16.8 °C 29.84in /  1010.4hPa SSW 3.0mph /  4.8km/h 7.0mph /  11.3km/h 80% 0.00in /  0mm
08:20 69.3 °F /  20.7 °C 62.5 °F /  16.9 °C 29.84in /  1010.4hPa SSW 2.0mph /  3.2km/h 7.0mph /  11.3km/h 79% 0.00in /  0mm
08:25 69.8 °F /  21 °C 62.6 °F /  17 °C 29.84in /  1010.4hPa SSW 3.0mph /  4.8km/h 9.0mph /  14.5km/h 78% 0.00in /  0mm
08:30 70.3 °F /  21.3 °C 63.1 °F /  17.3 °C 29.84in /  1010.4hPa SSW 3.0mph /  4.8km/h 9.0mph /  14.5km/h 78% 0.00in /  0mm
08:35 70.6 °F /  21.4 °C 63.4 °F /  17.4 °C 29.84in /  1010.4hPa SW 2.0mph /  3.2km/h 10.0mph /  16.1km/h 78% 0.00in /  0mm
08:45 71.5 °F /  21.9 °C 63.5 °F /  17.5 °C 29.84in /  1010.4hPa SW 1.0mph /  1.6km/h 8.0mph /  12.9km/h 76% 0.00in /  0mm
08:50 71.7 °F /  22.1 °C 63.7 °F /  17.6 °C 29.84in /  1010.4hPa SW 2.0mph /  3.2km/h 8.0mph /  12.9km/h 76% 0.00in /  0mm
08:55 72.1 °F /  22.3 °C 63.0 °F /  17.2 °C 29.85in /  1010.7hPa SW 5.0mph /  8km/h 10.0mph /  16.1km/h 73% 0.00in /  0mm
09:00 72.5 °F /  22.5 °C 63.7 °F /  17.6 °C 29.84in /  1010.4hPa WSW 1.0mph /  1.6km/h 10.0mph /  16.1km/h 74% 0.00in /  0mm
09:05 73.1 °F /  22.8 °C 63.5 °F /  17.5 °C 29.85in /  1010.7hPa SW 4.0mph /  6.4km/h 9.0mph /  14.5km/h 72% 0.00in /  0mm
09:10 73.5 °F /  23.1 °C 64.3 °F /  17.9 °C 29.85in /  1010.7hPa SW 3.0mph /  4.8km/h 9.0mph /  14.5km/h 73% 0.00in /  0mm
09:15 73.8 °F /  23.2 °C 64.2 °F /  17.9 °C 29.85in /  1010.7hPa Calm   8.0mph /  12.9km/h 72% 0.00in /  0mm
09:20 74.6 °F /  23.7 °C 64.2 °F /  17.9 °C 29.85in /  1010.7hPa SSW 1.0mph /  1.6km/h 7.0mph /  11.3km/h 70% 0.00in /  0mm
09:25 75.1 °F /  23.9 °C 64.2 °F /  17.9 °C 29.85in /  1010.7hPa SSW 2.0mph /  3.2km/h 10.0mph /  16.1km/h 69% 0.00in /  0mm
09:30 75.3 °F /  24.1 °C 63.6 °F /  17.6 °C 29.84in /  1010.4hPa SW 1.0mph /  1.6km/h 10.0mph /  16.1km/h 67% 0.00in /  0mm
09:35 75.5 °F /  24.2 °C 62.9 °F /  17.2 °C 29.84in /  1010.4hPa SW 4.0mph /  6.4km/h 9.0mph /  14.5km/h 65% 0.00in /  0mm
09:40 75.7 °F /  24.3 °C 64.4 °F /  18 °C 29.84in /  1010.4hPa Calm   8.0mph /  12.9km/h 68% 0.00in /  0mm
09:45 76.2 °F /  24.6 °C 64.9 °F /  18.3 °C 29.84in /  1010.4hPa SW 1.0mph /  1.6km/h 5.0mph /  8km/h 68% 0.00in /  0mm
09:50 76.5 °F /  24.7 °C 65.2 °F /  18.4 °C 29.84in /  1010.4hPa Calm   8.0mph /  12.9km/h 68% 0.00in /  0mm
09:55 76.4 °F /  24.7 °C 64.6 °F /  18.1 °C 29.84in /  1010.4hPa SW 2.0mph /  3.2km/h 8.0mph /  12.9km/h 67% 0.00in /  0mm
10:00 76.2 °F /  24.6 °C 64.5 °F /  18.1 °C 29.84in /  1010.4hPa South 2.0mph /  3.2km/h 8.0mph /  12.9km/h 67% 0.00in /  0mm
10:05 76.5 °F /  24.7 °C 64.3 °F /  17.9 °C 29.84in /  1010.4hPa South 1.0mph /  1.6km/h 8.0mph /  12.9km/h 66% 0.00in /  0mm
10:15 77.0 °F /  25 °C 64.3 °F /  17.9 °C 29.84in /  1010.4hPa Calm   7.0mph /  11.3km/h 65% 0.00in /  0mm
10:20 77.5 °F /  25.3 °C 65.3 °F /  18.5 °C 29.84in /  1010.4hPa Calm   6.0mph /  9.7km/h 66% 0.00in /  0mm
10:25 77.5 °F /  25.3 °C 63.9 °F /  17.7 °C 29.84in /  1010.4hPa South 1.0mph /  1.6km/h 8.0mph /  12.9km/h 63% 0.00in /  0mm
10:30 77.3 °F /  25.2 °C 63.7 °F /  17.6 °C 29.85in /  1010.7hPa SSW 2.0mph /  3.2km/h 8.0mph /  12.9km/h 63% 0.00in /  0mm
10:35 77.0 °F /  25 °C 63.5 °F /  17.5 °C 29.84in /  1010.4hPa WSW 3.0mph /  4.8km/h 8.0mph /  12.9km/h 63% 0.00in /  0mm
10:40 77.3 °F /  25.2 °C 63.3 °F /  17.4 °C 29.84in /  1010.4hPa SSW 4.0mph /  6.4km/h 10.0mph /  16.1km/h 62% 0.00in /  0mm
10:45 77.1 °F /  25.1 °C 63.1 °F /  17.3 °C 29.84in /  1010.4hPa SW 3.0mph /  4.8km/h 10.0mph /  16.1km/h 62% 0.00in /  0mm
10:50 77.3 °F /  25.2 °C 63.7 °F /  17.6 °C 29.84in /  1010.4hPa West 2.0mph /  3.2km/h 9.0mph /  14.5km/h 63% 0.00in /  0mm
10:55 77.5 °F /  25.3 °C 63.9 °F /  17.7 °C 29.84in /  1010.4hPa Calm   9.0mph /  14.5km/h 63% 0.00in /  0mm
11:00 78.0 °F /  25.6 °C 62.5 °F /  16.9 °C 29.84in /  1010.4hPa SSW 1.0mph /  1.6km/h 7.0mph /  11.3km/h 59% 0.00in /  0mm
11:05 78.5 °F /  25.8 °C 63.9 °F /  17.7 °C 29.84in /  1010.4hPa WSW 1.0mph /  1.6km/h 6.0mph /  9.7km/h 61% 0.00in /  0mm
11:10 78.7 °F /  25.9 °C 63.7 °F /  17.6 °C 29.84in /  1010.4hPa Calm   6.0mph /  9.7km/h 60% 0.00in /  0mm
11:15 78.9 °F /  26.1 °C 64.3 °F /  17.9 °C 29.83in /  1010hPa Calm   6.0mph /  9.7km/h 61% 0.00in /  0mm
11:20 79.6 °F /  26.4 °C 64.5 °F /  18.1 °C 29.83in /  1010hPa West 1.0mph /  1.6km/h 6.0mph /  9.7km/h 60% 0.00in /  0mm
11:25 80.0 °F /  26.7 °C 65.4 °F /  18.6 °C 29.83in /  1010hPa Calm   6.0mph /  9.7km/h 61% 0.00in /  0mm
11:30 80.0 °F /  26.7 °C 60.3 °F /  15.7 °C 29.83in /  1010hPa West 3.0mph /  4.8km/h 6.0mph /  9.7km/h 51% 0.00in /  0mm
11:35 79.8 °F /  26.6 °C 63.2 °F /  17.3 °C 29.83in /  1010hPa Calm   6.0mph /  9.7km/h 57% 0.00in /  0mm
11:40 80.1 °F /  26.7 °C 65.0 °F /  18.3 °C 29.83in /  1010hPa NW 1.0mph /  1.6km/h 6.0mph /  9.7km/h 60% 0.00in /  0mm
11:45 80.4 °F /  26.9 °C 62.8 °F /  17.1 °C 29.83in /  1010hPa Calm   5.0mph /  8km/h 55% 0.00in /  0mm
11:50 80.6 °F /  27 °C 64.5 °F /  18.1 °C 29.83in /  1010hPa Calm   5.0mph /  8km/h 58% 0.00in /  0mm
11:55 80.7 °F /  27.1 °C 60.9 °F /  16.1 °C 29.83in /  1010hPa West 3.0mph /  4.8km/h 6.0mph /  9.7km/h 51% 0.00in /  0mm
12:00 80.8 °F /  27.1 °C 64.2 °F /  17.9 °C 29.83in /  1010hPa Calm   6.0mph /  9.7km/h 57% 0.00in /  0mm
12:05 81.1 °F /  27.3 °C 65.4 °F /  18.6 °C 29.83in /  1010hPa SSW 2.0mph /  3.2km/h 7.0mph /  11.3km/h 59% 0.00in /  0mm
12:10 81.1 °F /  27.3 °C 62.9 °F /  17.2 °C 29.82in /  1009.7hPa Calm   7.0mph /  11.3km/h 54% 0.00in /  0mm
12:15 81.2 °F /  27.3 °C 61.9 °F /  16.6 °C 29.82in /  1009.7hPa Calm   6.0mph /  9.7km/h 52% 0.00in /  0mm
12:20 81.7 °F /  27.6 °C 63.5 °F /  17.5 °C 29.83in /  1010hPa Calm   6.0mph /  9.7km/h 54% 0.00in /  0mm
12:25 81.6 °F /  27.6 °C 60.0 °F /  15.6 °C 29.82in /  1009.7hPa West 2.0mph /  3.2km/h 5.0mph /  8km/h 48% 0.00in /  0mm
12:30 81.6 °F /  27.6 °C 63.9 °F /  17.7 °C 29.82in /  1009.7hPa Calm   7.0mph /  11.3km/h 55% 0.00in /  0mm
12:40 82.1 °F /  27.8 °C 64.4 °F /  18 °C 29.83in /  1010hPa SW 1.0mph /  1.6km/h 7.0mph /  11.3km/h 55% 0.00in /  0mm
12:45 82.1 °F /  27.8 °C 61.1 °F /  16.2 °C 29.83in /  1010hPa SW 1.0mph /  1.6km/h 7.0mph /  11.3km/h 49% 0.00in /  0mm
12:50 82.2 °F /  27.9 °C 63.9 °F /  17.7 °C 29.82in /  1009.7hPa West 3.0mph /  4.8km/h 9.0mph /  14.5km/h 54% 0.00in /  0mm
12:55 82.2 °F /  27.9 °C 62.8 °F /  17.1 °C 29.82in /  1009.7hPa Calm   9.0mph /  14.5km/h 52% 0.00in /  0mm
13:00 82.5 °F /  28.1 °C 61.4 °F /  16.3 °C 29.82in /  1009.7hPa SSW 1.0mph /  1.6km/h 5.0mph /  8km/h 49% 0.00in /  0mm
13:05 82.2 °F /  27.9 °C 58.8 °F /  14.9 °C 29.82in /  1009.7hPa SW 2.0mph /  3.2km/h 5.0mph /  8km/h 45% 0.00in /  0mm
13:10 82.0 °F /  27.8 °C 59.2 °F /  15.1 °C 29.82in /  1009.7hPa SW 3.0mph /  4.8km/h 8.0mph /  12.9km/h 46% 0.00in /  0mm
13:15 82.0 °F /  27.8 °C 64.3 °F /  17.9 °C 29.82in /  1009.7hPa Calm   8.0mph /  12.9km/h 55% 0.00in /  0mm
13:20 82.1 °F /  27.8 °C 62.8 °F /  17.1 °C 29.82in /  1009.7hPa SW 2.0mph /  3.2km/h 7.0mph /  11.3km/h 52% 0.00in /  0mm
13:25 82.6 °F /  28.1 °C 61.5 °F /  16.4 °C 29.82in /  1009.7hPa Calm   6.0mph /  9.7km/h 49% 0.00in /  0mm
13:30 82.7 °F /  28.2 °C 61.0 °F /  16.1 °C 29.82in /  1009.7hPa WNW 3.0mph /  4.8km/h 8.0mph /  12.9km/h 48% 0.00in /  0mm
13:35 83.0 °F /  28.3 °C 63.6 °F /  17.6 °C 29.82in /  1009.7hPa Calm   8.0mph /  12.9km/h 52% 0.00in /  0mm
13:40 83.2 °F /  28.4 °C 60.9 °F /  16.1 °C 29.82in /  1009.7hPa SW 1.0mph /  1.6km/h 10.0mph /  16.1km/h 47% 0.00in /  0mm
13:45 82.2 °F /  27.9 °C 61.2 °F /  16.2 °C 29.82in /  1009.7hPa SW 3.0mph /  4.8km/h 10.0mph /  16.1km/h 49% 0.00in /  0mm
13:50 82.0 °F /  27.8 °C 62.7 °F /  17.1 °C 29.81in /  1009.4hPa SW 3.0mph /  4.8km/h 7.0mph /  11.3km/h 52% 0.00in /  0mm
13:55 82.2 °F /  27.9 °C 62.3 °F /  16.8 °C 29.81in /  1009.4hPa WSW 1.0mph /  1.6km/h 7.0mph /  11.3km/h 51% 0.00in /  0mm
14:00 82.7 °F /  28.2 °C 62.2 °F /  16.8 °C 29.81in /  1009.4hPa Calm   8.0mph /  12.9km/h 50% 0.00in /  0mm
14:05 83.2 °F /  28.4 °C 65.9 °F /  18.8 °C 29.81in /  1009.4hPa West 4.0mph /  6.4km/h 9.0mph /  14.5km/h 56% 0.00in /  0mm
14:10 82.7 °F /  28.2 °C 62.8 °F /  17.1 °C 29.81in /  1009.4hPa SSW 4.0mph /  6.4km/h 10.0mph /  16.1km/h 51% 0.00in /  0mm
14:15 82.2 °F /  27.9 °C 63.9 °F /  17.7 °C 29.81in /  1009.4hPa SW 2.0mph /  3.2km/h 10.0mph /  16.1km/h 54% 0.00in /  0mm
14:20 82.3 °F /  27.9 °C 66.1 °F /  18.9 °C 29.81in /  1009.4hPa SW 3.0mph /  4.8km/h 9.0mph /  14.5km/h 58% 0.00in /  0mm
14:25 83.0 °F /  28.3 °C 66.7 °F /  19.3 °C 29.81in /  1009.4hPa SW 2.0mph /  3.2km/h 9.0mph /  14.5km/h 58% 0.00in /  0mm
14:30 83.3 °F /  28.5 °C 59.8 °F /  15.4 °C 29.81in /  1009.4hPa Calm   7.0mph /  11.3km/h 45% 0.00in /  0mm
14:35 83.6 °F /  28.7 °C 60.7 °F /  15.9 °C 29.81in /  1009.4hPa SW 2.0mph /  3.2km/h 9.0mph /  14.5km/h 46% 0.00in /  0mm
14:40 83.9 °F /  28.8 °C 64.4 °F /  18 °C 29.81in /  1009.4hPa NW 3.0mph /  4.8km/h 9.0mph /  14.5km/h 52% 0.00in /  0mm
14:45 84.2 °F /  29 °C 61.8 °F /  16.6 °C 29.81in /  1009.4hPa WNW 3.0mph /  4.8km/h 8.0mph /  12.9km/h 47% 0.00in /  0mm
14:55 83.7 °F /  28.7 °C 61.4 °F /  16.3 °C 29.81in /  1009.4hPa Calm   9.0mph /  14.5km/h 47% 0.00in /  0mm
15:00 84.1 °F /  28.9 °C 61.7 °F /  16.5 °C 29.81in /  1009.4hPa WNW 3.0mph /  4.8km/h 9.0mph /  14.5km/h 47% 0.00in /  0mm
15:05 84.0 °F /  28.9 °C 60.4 °F /  15.8 °C 29.81in /  1009.4hPa WNW 1.0mph /  1.6km/h 6.0mph /  9.7km/h 45% 0.00in /  0mm
15:10 83.3 °F /  28.5 °C 62.7 °F /  17.1 °C 29.82in /  1009.7hPa Calm   6.0mph /  9.7km/h 50% 0.00in /  0mm
15:15 82.9 °F /  28.3 °C 61.2 °F /  16.2 °C 29.82in /  1009.7hPa NW 2.0mph /  3.2km/h 5.0mph /  8km/h 48% 0.00in /  0mm
15:20 82.5 °F /  28.1 °C 58.4 °F /  14.7 °C 29.82in /  1009.7hPa WSW 1.0mph /  1.6km/h 6.0mph /  9.7km/h 44% 0.00in /  0mm
15:25 82.4 °F /  28 °C 62.5 °F /  16.9 °C 29.82in /  1009.7hPa Calm   6.0mph /  9.7km/h 51% 0.00in /  0mm
15:30 82.4 °F /  28 °C 62.5 °F /  16.9 °C 29.82in /  1009.7hPa WNW 2.0mph /  3.2km/h 7.0mph /  11.3km/h 51% 0.00in /  0mm
15:35 82.9 °F /  28.3 °C 58.8 °F /  14.9 °C 29.82in /  1009.7hPa West 1.0mph /  1.6km/h 7.0mph /  11.3km/h 44% 0.00in /  0mm
15:40 83.5 °F /  28.6 °C 61.8 °F /  16.6 °C 29.82in /  1009.7hPa WSW 2.0mph /  3.2km/h 8.0mph /  12.9km/h 48% 0.00in /  0mm
15:45 83.7 °F /  28.7 °C 60.8 °F /  16 °C 29.82in /  1009.7hPa WNW 2.0mph /  3.2km/h 8.0mph /  12.9km/h 46% 0.00in /  0mm
15:50 83.7 °F /  28.7 °C 60.1 °F /  15.6 °C 29.82in /  1009.7hPa NW 1.0mph /  1.6km/h 6.0mph /  9.7km/h 45% 0.00in /  0mm
15:55 84.0 °F /  28.9 °C 64.5 °F /  18.1 °C 29.83in /  1010hPa NW 1.0mph /  1.6km/h 6.0mph /  9.7km/h 52% 0.00in /  0mm
16:00 83.9 °F /  28.8 °C 66.5 °F /  19.2 °C 29.83in /  1010hPa Calm   5.0mph /  8km/h 56% 0.00in /  0mm
16:05 83.9 °F /  28.8 °C 62.7 °F /  17.1 °C 29.83in /  1010hPa Calm   3.0mph /  4.8km/h 49% 0.00in /  0mm
16:10 83.8 °F /  28.8 °C 64.9 °F /  18.3 °C 29.83in /  1010hPa Calm   5.0mph /  8km/h 53% 0.00in /  0mm
16:15 83.3 °F /  28.5 °C 61.6 °F /  16.4 °C 29.82in /  1009.7hPa Calm   5.0mph /  8km/h 48% 0.00in /  0mm
16:20 83.4 °F /  28.6 °C 63.4 °F /  17.4 °C 29.82in /  1009.7hPa Calm   1.0mph /  1.6km/h 51% 0.00in /  0mm
16:25 82.9 °F /  28.3 °C 65.1 °F /  18.4 °C 29.82in /  1009.7hPa Calm   1.0mph /  1.6km/h 55% 0.00in /  0mm
16:30 82.5 °F /  28.1 °C 67.2 °F /  19.6 °C 29.82in /  1009.7hPa Calm     60% 0.00in /  0mm
16:40 81.9 °F /  27.7 °C 66.2 °F /  19 °C 29.82in /  1009.7hPa Calm     59% 0.00in /  0mm
16:45 82.0 °F /  27.8 °C 63.2 °F /  17.3 °C 29.82in /  1009.7hPa Calm     53% 0.00in /  0mm
16:50 82.3 °F /  27.9 °C 66.6 °F /  19.2 °C 29.82in /  1009.7hPa Calm   1.0mph /  1.6km/h 59% 0.00in /  0mm
16:55 82.1 °F /  27.8 °C 65.4 °F /  18.6 °C 29.82in /  1009.7hPa Calm   1.0mph /  1.6km/h 57% 0.00in /  0mm
17:00 81.8 °F /  27.7 °C 65.6 °F /  18.7 °C 29.82in /  1009.7hPa Calm     58% 0.00in /  0mm
17:05 81.9 °F /  27.7 °C 64.7 °F /  18.2 °C 29.82in /  1009.7hPa Calm     56% 0.00in /  0mm
17:10 82.3 °F /  27.9 °C 61.8 °F /  16.6 °C 29.82in /  1009.7hPa Calm   4.0mph /  6.4km/h 50% 0.00in /  0mm
17:15 82.2 °F /  27.9 °C 61.7 °F /  16.5 °C 29.82in /  1009.7hPa Calm   4.0mph /  6.4km/h 50% 0.00in /  0mm
17:20 82.1 °F /  27.8 °C 64.4 °F /  18 °C 29.82in /  1009.7hPa Calm   1.0mph /  1.6km/h 55% 0.00in /  0mm
17:25 82.0 °F /  27.8 °C 63.7 °F /  17.6 °C 29.82in /  1009.7hPa Calm   1.0mph /  1.6km/h 54% 0.00in /  0mm
17:30 81.8 °F /  27.7 °C 63.0 °F /  17.2 °C 29.82in /  1009.7hPa Calm   1.0mph /  1.6km/h 53% 0.00in /  0mm
17:35 81.6 °F /  27.6 °C 64.4 °F /  18 °C 29.82in /  1009.7hPa Calm   1.0mph /  1.6km/h 56% 0.00in /  0mm
17:40 81.5 °F /  27.5 °C 65.8 °F /  18.8 °C 29.82in /  1009.7hPa Calm     59% 0.00in /  0mm
17:45 81.5 °F /  27.5 °C 64.8 °F /  18.2 °C 29.82in /  1009.7hPa WSW 1.0mph /  1.6km/h 5.0mph /  8km/h 57% 0.00in /  0mm
17:50 81.6 °F /  27.6 °C 63.4 °F /  17.4 °C 29.82in /  1009.7hPa SW 1.0mph /  1.6km/h 5.0mph /  8km/h 54% 0.00in /  0mm
17:55 81.7 °F /  27.6 °C 64.0 °F /  17.8 °C 29.82in /  1009.7hPa Calm   5.0mph /  8km/h 55% 0.00in /  0mm
18:00 81.7 °F /  27.6 °C 63.5 °F /  17.5 °C 29.82in /  1009.7hPa SSW 1.0mph /  1.6km/h 4.0mph /  6.4km/h 54% 0.00in /  0mm
18:05 81.5 °F /  27.5 °C 65.3 °F /  18.5 °C 29.82in /  1009.7hPa Calm   4.0mph /  6.4km/h 58% 0.00in /  0mm
18:10 81.2 °F /  27.3 °C 64.0 °F /  17.8 °C 29.82in /  1009.7hPa SW 1.0mph /  1.6km/h 4.0mph /  6.4km/h 56% 0.00in /  0mm
18:15 81.0 °F /  27.2 °C 64.4 °F /  18 °C 29.82in /  1009.7hPa Calm   4.0mph /  6.4km/h 57% 0.00in /  0mm
18:20 80.9 °F /  27.2 °C 65.2 °F /  18.4 °C 29.82in /  1009.7hPa Calm   3.0mph /  4.8km/h 59% 0.00in /  0mm
18:25 80.7 °F /  27.1 °C 64.6 °F /  18.1 °C 29.82in /  1009.7hPa Calm   3.0mph /  4.8km/h 58% 0.00in /  0mm
18:30 80.5 °F /  26.9 °C 66.3 °F /  19.1 °C 29.81in /  1009.4hPa Calm   1.0mph /  1.6km/h 62% 0.00in /  0mm
18:35 80.5 °F /  26.9 °C 64.9 °F /  18.3 °C 29.82in /  1009.7hPa Calm   1.0mph /  1.6km/h 59% 0.00in /  0mm
18:40 80.6 °F /  27 °C 65.4 °F /  18.6 °C 29.81in /  1009.4hPa Calm   1.0mph /  1.6km/h 60% 0.00in /  0mm
18:45 80.2 °F /  26.8 °C 64.1 °F /  17.8 °C 29.82in /  1009.7hPa SW 2.0mph /  3.2km/h 4.0mph /  6.4km/h 58% 0.00in /  0mm
18:50 79.6 °F /  26.4 °C 65.5 °F /  18.6 °C 29.82in /  1009.7hPa Calm   4.0mph /  6.4km/h 62% 0.00in /  0mm
18:55 78.8 °F /  26 °C 64.7 °F /  18.2 °C 29.82in /  1009.7hPa Calm   3.0mph /  4.8km/h 62% 0.00in /  0mm
19:00 78.1 °F /  25.6 °C 64.9 °F /  18.3 °C 29.82in /  1009.7hPa Calm   3.0mph /  4.8km/h 64% 0.00in /  0mm
19:05 77.5 °F /  25.3 °C 66.1 °F /  18.9 °C 29.82in /  1009.7hPa Calm   1.0mph /  1.6km/h 68% 0.00in /  0mm
19:10 77.2 °F /  25.1 °C 67.1 °F /  19.5 °C 29.82in /  1009.7hPa Calm   1.0mph /  1.6km/h 71% 0.00in /  0mm
19:15 76.9 °F /  24.9 °C 66.0 °F /  18.9 °C 29.82in /  1009.7hPa Calm   4.0mph /  6.4km/h 69% 0.00in /  0mm
19:20 77.0 °F /  25 °C 65.2 °F /  18.4 °C 29.82in /  1009.7hPa Calm   4.0mph /  6.4km/h 67% 0.00in /  0mm
19:25 77.2 °F /  25.1 °C 65.0 °F /  18.3 °C 29.82in /  1009.7hPa Calm   2.0mph /  3.2km/h 66% 0.00in /  0mm
19:30 77.4 °F /  25.2 °C 64.7 °F /  18.2 °C 29.82in /  1009.7hPa Calm   2.0mph /  3.2km/h 65% 0.00in /  0mm
19:40 77.2 °F /  25.1 °C 63.2 °F /  17.3 °C 29.81in /  1009.4hPa Calm   1.0mph /  1.6km/h 62% 0.00in /  0mm
19:45 76.8 °F /  24.9 °C 63.3 °F /  17.4 °C 29.82in /  1009.7hPa Calm   1.0mph /  1.6km/h 63% 0.00in /  0mm
19:50 76.4 °F /  24.7 °C 62.9 °F /  17.2 °C 29.82in /  1009.7hPa Calm   1.0mph /  1.6km/h 63% 0.00in /  0mm
19:55 76.0 °F /  24.4 °C 63.8 °F /  17.7 °C 29.82in /  1009.7hPa Calm   4.0mph /  6.4km/h 66% 0.00in /  0mm
20:00 75.5 °F /  24.2 °C 64.2 °F /  17.9 °C 29.82in /  1009.7hPa Calm   4.0mph /  6.4km/h 68% 0.00in /  0mm
20:10 74.3 °F /  23.5 °C 62.6 °F /  17 °C 29.82in /  1009.7hPa Calm   3.0mph /  4.8km/h 67% 0.00in /  0mm
20:15 73.8 °F /  23.2 °C 62.2 °F /  16.8 °C 29.82in /  1009.7hPa Calm   1.0mph /  1.6km/h 67% 0.00in /  0mm
20:20 73.3 °F /  22.9 °C 62.9 °F /  17.2 °C 29.82in /  1009.7hPa Calm   1.0mph /  1.6km/h 70% 0.00in /  0mm
20:30 72.3 °F /  22.4 °C 62.4 °F /  16.9 °C 29.82in /  1009.7hPa Calm   1.0mph /  1.6km/h 71% 0.00in /  0mm
20:35 71.6 °F /  22 °C 62.5 °F /  16.9 °C 29.82in /  1009.7hPa Calm   1.0mph /  1.6km/h 73% 0.00in /  0mm
20:40 70.7 °F /  21.5 °C 62.0 °F /  16.7 °C 29.82in /  1009.7hPa Calm     74% 0.00in /  0mm
20:45 70.1 °F /  21.2 °C 62.2 °F /  16.8 °C 29.82in /  1009.7hPa Calm     76% 0.00in /  0mm
20:50 69.5 °F /  20.8 °C 61.6 °F /  16.4 °C 29.82in /  1009.7hPa SW 1.0mph /  1.6km/h 3.0mph /  4.8km/h 76% 0.00in /  0mm
20:55 69.1 °F /  20.6 °C 62.0 °F /  16.7 °C 29.83in /  1010hPa Calm   3.0mph /  4.8km/h 78% 0.00in /  0mm
21:00 68.6 °F /  20.3 °C 61.8 °F /  16.6 °C 29.83in /  1010hPa SW 1.0mph /  1.6km/h 3.0mph /  4.8km/h 79% 0.00in /  0mm
21:05 68.4 °F /  20.2 °C 61.6 °F /  16.4 °C 29.83in /  1010hPa Calm   3.0mph /  4.8km/h 79% 0.00in /  0mm
21:10 68.4 °F /  20.2 °C 61.3 °F /  16.3 °C 29.83in /  1010hPa SW 1.0mph /  1.6km/h 3.0mph /  4.8km/h 78% 0.00in /  0mm
21:15 68.8 °F /  20.4 °C 60.9 °F /  16.1 °C 29.84in /  1010.4hPa Calm   4.0mph /  6.4km/h 76% 0.00in /  0mm
21:20 69.3 °F /  20.7 °C 61.0 °F /  16.1 °C 29.84in /  1010.4hPa SW 1.0mph /  1.6km/h 5.0mph /  8km/h 75% 0.00in /  0mm
21:25 69.7 °F /  20.9 °C 61.1 °F /  16.2 °C 29.84in /  1010.4hPa SW 1.0mph /  1.6km/h 5.0mph /  8km/h 74% 0.00in /  0mm
21:30 70.1 °F /  21.2 °C 61.4 °F /  16.3 °C 29.84in /  1010.4hPa Calm   3.0mph /  4.8km/h 74% 0.00in /  0mm
21:35 70.2 °F /  21.2 °C 61.1 °F /  16.2 °C 29.84in /  1010.4hPa Calm   3.0mph /  4.8km/h 73% 0.00in /  0mm
21:40 70.1 °F /  21.2 °C 61.1 °F /  16.2 °C 29.84in /  1010.4hPa Calm   1.0mph /  1.6km/h 73% 0.00in /  0mm
21:45 69.8 °F /  21 °C 61.5 °F /  16.4 °C 29.84in /  1010.4hPa Calm   1.0mph /  1.6km/h 75% 0.00in /  0mm
21:55 68.8 °F /  20.4 °C 61.3 °F /  16.3 °C 29.84in /  1010.4hPa Calm   2.0mph /  3.2km/h 77% 0.00in /  0mm
22:00 68.5 °F /  20.3 °C 61.0 °F /  16.1 °C 29.84in /  1010.4hPa Calm   1.0mph /  1.6km/h 77% 0.00in /  0mm
22:05 68.2 °F /  20.1 °C 60.7 °F /  15.9 °C 29.84in /  1010.4hPa Calm   1.0mph /  1.6km/h 77% 0.00in /  0mm
22:10 68.0 °F /  20 °C 60.9 °F /  16.1 °C 29.84in /  1010.4hPa Calm   1.0mph /  1.6km/h 78% 0.00in /  0mm
22:15 67.6 °F /  19.8 °C 60.5 °F /  15.8 °C 29.84in /  1010.4hPa Calm   1.0mph /  1.6km/h 78% 0.00in /  0mm
22:20 67.4 °F /  19.7 °C 59.9 °F /  15.5 °C 29.84in /  1010.4hPa Calm   1.0mph /  1.6km/h 77% 0.00in /  0mm
22:25 67.5 °F /  19.7 °C 60.0 °F /  15.6 °C 29.84in /  1010.4hPa SW 1.0mph /  1.6km/h 3.0mph /  4.8km/h 77% 0.00in /  0mm
22:30 67.4 °F /  19.7 °C 60.3 °F /  15.7 °C 29.84in /  1010.4hPa Calm   3.0mph /  4.8km/h 78% 0.00in /  0mm
22:40 67.2 °F /  19.6 °C 60.8 °F /  16 °C 29.85in /  1010.7hPa Calm   1.0mph /  1.6km/h 80% 0.00in /  0mm
22:45 67.0 °F /  19.4 °C 61.0 °F /  16.1 °C 29.84in /  1010.4hPa Calm   1.0mph /  1.6km/h 81% 0.00in /  0mm
22:50 67.1 °F /  19.5 °C 60.4 °F /  15.8 °C 29.85in /  1010.7hPa Calm   4.0mph /  6.4km/h 79% 0.00in /  0mm
22:55 67.4 °F /  19.7 °C 59.6 °F /  15.3 °C 29.85in /  1010.7hPa Calm   4.0mph /  6.4km/h 76% 0.00in /  0mm
23:00 67.9 °F /  19.9 °C 59.7 °F /  15.4 °C 29.85in /  1010.7hPa Calm   3.0mph /  4.8km/h 75% 0.00in /  0mm
23:05 68.0 °F /  20 °C 59.4 °F /  15.2 °C 29.85in /  1010.7hPa Calm   1.0mph /  1.6km/h 74% 0.00in /  0mm
23:10 67.8 °F /  19.9 °C 59.2 °F /  15.1 °C 29.85in /  1010.7hPa SW 1.0mph /  1.6km/h 2.0mph /  3.2km/h 74% 0.00in /  0mm
23:15 67.5 °F /  19.7 °C 58.2 °F /  14.6 °C 29.84in /  1010.4hPa Calm   3.0mph /  4.8km/h 72% 0.00in /  0mm
23:20 67.3 °F /  19.6 °C 58.0 °F /  14.4 °C 29.85in /  1010.7hPa Calm   3.0mph /  4.8km/h 72% 0.00in /  0mm
23:25 67.0 °F /  19.4 °C 57.7 °F /  14.3 °C 29.84in /  1010.4hPa Calm   3.0mph /  4.8km/h 72% 0.00in /  0mm
23:30 66.7 °F /  19.3 °C 57.0 °F /  13.9 °C 29.84in /  1010.4hPa Calm   1.0mph /  1.6km/h 71% 0.00in /  0mm
23:35 66.2 °F /  19 °C 56.9 °F /  13.8 °C 29.84in /  1010.4hPa Calm   1.0mph /  1.6km/h 72% 0.00in /  0mm
23:40 65.8 °F /  18.8 °C 56.5 °F /  13.6 °C 29.84in /  1010.4hPa Calm   1.0mph /  1.6km/h 72% 0.00in /  0mm
23:45 65.6 °F /  18.7 °C 56.3 °F /  13.5 °C 29.84in /  1010.4hPa Calm   1.0mph /  1.6km/h 72% 0.00in /  0mm
23:50 65.5 °F /  18.6 °C 56.6 °F /  13.7 °C 29.84in /  1010.4hPa Calm   1.0mph /  1.6km/h 73% 0.00in /  0mm
23:55 65.0 °F /  18.3 °C 56.1 °F /  13.4 °C 29.84in /  1010.4hPa Calm   1.0mph /  1.6km/h 73% 0.00in /  0mm
Westford Weather
Compliments of Weather Underground

 
 
Current Radar Loop:

Copyright © WestfordWeather.net 2007-2014. All rights reserved.